sensor_id;sensor_type;location;lat;lon;timestamp;P1;durP1;ratioP1;P2;durP2;ratioP2
10410;SDS011;5251;52.112;8.606;2024-02-14T00:02:20;3.35;;;2.75;;
10410;SDS011;5251;52.112;8.606;2024-02-14T00:04:46;3.30;;;3.00;;
10410;SDS011;5251;52.112;8.606;2024-02-14T00:07:13;3.38;;;2.60;;
10410;SDS011;5251;52.112;8.606;2024-02-14T00:09:39;3.92;;;2.92;;
10410;SDS011;5251;52.112;8.606;2024-02-14T00:12:05;3.58;;;2.70;;
10410;SDS011;5251;52.112;8.606;2024-02-14T00:14:31;3.70;;;2.85;;
10410;SDS011;5251;52.112;8.606;2024-02-14T00:16:57;5.75;;;3.33;;
10410;SDS011;5251;52.112;8.606;2024-02-14T00:19:24;4.78;;;2.78;;
10410;SDS011;5251;52.112;8.606;2024-02-14T00:21:50;3.42;;;2.78;;
10410;SDS011;5251;52.112;8.606;2024-02-14T00:24:15;4.00;;;2.92;;
10410;SDS011;5251;52.112;8.606;2024-02-14T00:26:44;4.88;;;3.05;;
10410;SDS011;5251;52.112;8.606;2024-02-14T00:29:11;4.47;;;2.80;;
10410;SDS011;5251;52.112;8.606;2024-02-14T00:31:36;3.40;;;2.58;;
10410;SDS011;5251;52.112;8.606;2024-02-14T00:34:02;3.95;;;2.60;;
10410;SDS011;5251;52.112;8.606;2024-02-14T00:36:28;4.43;;;2.50;;
10410;SDS011;5251;52.112;8.606;2024-02-14T00:38:53;3.00;;;2.65;;
10410;SDS011;5251;52.112;8.606;2024-02-14T00:41:19;3.35;;;2.50;;
10410;SDS011;5251;52.112;8.606;2024-02-14T00:43:45;5.50;;;2.50;;
10410;SDS011;5251;52.112;8.606;2024-02-14T00:46:17;2.70;;;2.28;;
10410;SDS011;5251;52.112;8.606;2024-02-14T00:48:42;3.35;;;2.35;;
10410;SDS011;5251;52.112;8.606;2024-02-14T00:51:09;4.70;;;3.03;;
10410;SDS011;5251;52.112;8.606;2024-02-14T00:53:35;3.38;;;2.55;;
10410;SDS011;5251;52.112;8.606;2024-02-14T00:56:01;3.63;;;2.90;;
10410;SDS011;5251;52.112;8.606;2024-02-14T00:58:27;4.00;;;2.20;;
10410;SDS011;5251;52.112;8.606;2024-02-14T01:00:53;3.88;;;2.58;;
10410;SDS011;5251;52.112;8.606;2024-02-14T01:03:19;2.80;;;2.38;;
10410;SDS011;5251;52.112;8.606;2024-02-14T01:05:44;4.22;;;2.47;;
10410;SDS011;5251;52.112;8.606;2024-02-14T01:08:10;3.92;;;2.30;;
10410;SDS011;5251;52.112;8.606;2024-02-14T01:10:36;3.97;;;2.55;;
10410;SDS011;5251;52.112;8.606;2024-02-14T01:13:01;3.72;;;2.50;;
10410;SDS011;5251;52.112;8.606;2024-02-14T01:15:27;5.22;;;2.40;;
10410;SDS011;5251;52.112;8.606;2024-02-14T01:17:53;4.60;;;2.70;;
10410;SDS011;5251;52.112;8.606;2024-02-14T01:20:18;3.78;;;2.13;;
10410;SDS011;5251;52.112;8.606;2024-02-14T01:22:45;3.47;;;2.70;;
10410;SDS011;5251;52.112;8.606;2024-02-14T01:25:11;2.85;;;2.17;;
10410;SDS011;5251;52.112;8.606;2024-02-14T01:27:37;3.85;;;2.53;;
10410;SDS011;5251;52.112;8.606;2024-02-14T01:30:03;3.88;;;2.67;;
10410;SDS011;5251;52.112;8.606;2024-02-14T01:32:30;3.08;;;2.30;;
10410;SDS011;5251;52.112;8.606;2024-02-14T01:34:56;3.72;;;2.45;;
10410;SDS011;5251;52.112;8.606;2024-02-14T01:37:22;3.70;;;2.10;;
10410;SDS011;5251;52.112;8.606;2024-02-14T01:39:48;3.88;;;2.42;;
10410;SDS011;5251;52.112;8.606;2024-02-14T01:42:13;4.05;;;2.33;;
10410;SDS011;5251;52.112;8.606;2024-02-14T01:44:39;2.22;;;1.88;;
10410;SDS011;5251;52.112;8.606;2024-02-14T01:47:05;4.60;;;2.60;;
10410;SDS011;5251;52.112;8.606;2024-02-14T01:49:32;4.05;;;2.58;;
10410;SDS011;5251;52.112;8.606;2024-02-14T01:51:59;4.63;;;2.38;;
10410;SDS011;5251;52.112;8.606;2024-02-14T01:54:28;3.40;;;2.45;;
10410;SDS011;5251;52.112;8.606;2024-02-14T01:56:54;4.38;;;2.80;;
10410;SDS011;5251;52.112;8.606;2024-02-14T01:59:21;3.83;;;2.30;;
10410;SDS011;5251;52.112;8.606;2024-02-14T02:01:48;3.17;;;2.33;;
10410;SDS011;5251;52.112;8.606;2024-02-14T02:04:13;4.13;;;2.85;;
10410;SDS011;5251;52.112;8.606;2024-02-14T02:06:39;3.38;;;2.53;;
10410;SDS011;5251;52.112;8.606;2024-02-14T02:09:07;3.60;;;2.60;;
10410;SDS011;5251;52.112;8.606;2024-02-14T02:11:52;3.35;;;2.15;;
10410;SDS011;5251;52.112;8.606;2024-02-14T02:14:21;4.13;;;2.83;;
10410;SDS011;5251;52.112;8.606;2024-02-14T02:16:47;3.53;;;2.40;;
10410;SDS011;5251;52.112;8.606;2024-02-14T02:19:14;3.17;;;2.33;;
10410;SDS011;5251;52.112;8.606;2024-02-14T02:21:43;3.97;;;2.72;;
10410;SDS011;5251;52.112;8.606;2024-02-14T02:24:11;3.38;;;2.30;;
10410;SDS011;5251;52.112;8.606;2024-02-14T02:26:37;3.05;;;2.35;;
10410;SDS011;5251;52.112;8.606;2024-02-14T02:29:02;4.68;;;2.42;;
10410;SDS011;5251;52.112;8.606;2024-02-14T02:31:30;4.00;;;2.50;;
10410;SDS011;5251;52.112;8.606;2024-02-14T02:33:57;3.25;;;2.67;;
10410;SDS011;5251;52.112;8.606;2024-02-14T02:36:22;2.60;;;2.30;;
10410;SDS011;5251;52.112;8.606;2024-02-14T02:38:50;3.33;;;2.30;;
10410;SDS011;5251;52.112;8.606;2024-02-14T02:41:16;3.95;;;2.40;;
10410;SDS011;5251;52.112;8.606;2024-02-14T02:43:42;4.20;;;2.30;;
10410;SDS011;5251;52.112;8.606;2024-02-14T02:46:11;3.65;;;2.25;;
10410;SDS011;5251;52.112;8.606;2024-02-14T02:48:36;4.28;;;2.45;;
10410;SDS011;5251;52.112;8.606;2024-02-14T02:51:02;4.15;;;2.15;;
10410;SDS011;5251;52.112;8.606;2024-02-14T02:53:28;3.30;;;2.58;;
10410;SDS011;5251;52.112;8.606;2024-02-14T02:55:54;3.08;;;2.50;;
10410;SDS011;5251;52.112;8.606;2024-02-14T02:58:22;2.92;;;2.38;;
10410;SDS011;5251;52.112;8.606;2024-02-14T03:00:47;4.25;;;2.20;;
10410;SDS011;5251;52.112;8.606;2024-02-14T03:03:16;3.60;;;2.20;;
10410;SDS011;5251;52.112;8.606;2024-02-14T03:05:42;3.05;;;2.20;;
10410;SDS011;5251;52.112;8.606;2024-02-14T03:08:09;3.38;;;2.10;;
10410;SDS011;5251;52.112;8.606;2024-02-14T03:10:39;3.40;;;2.15;;
10410;SDS011;5251;52.112;8.606;2024-02-14T03:13:05;2.67;;;2.13;;
10410;SDS011;5251;52.112;8.606;2024-02-14T03:15:33;2.67;;;1.90;;
10410;SDS011;5251;52.112;8.606;2024-02-14T03:17:59;4.13;;;2.00;;
10410;SDS011;5251;52.112;8.606;2024-02-14T03:20:24;3.25;;;2.50;;
10410;SDS011;5251;52.112;8.606;2024-02-14T03:22:50;3.00;;;2.40;;
10410;SDS011;5251;52.112;8.606;2024-02-14T03:25:17;3.97;;;2.13;;
10410;SDS011;5251;52.112;8.606;2024-02-14T03:27:43;4.20;;;2.00;;
10410;SDS011;5251;52.112;8.606;2024-02-14T03:30:14;3.85;;;2.10;;
10410;SDS011;5251;52.112;8.606;2024-02-14T03:32:42;2.65;;;2.10;;
10410;SDS011;5251;52.112;8.606;2024-02-14T03:35:08;2.30;;;1.85;;
10410;SDS011;5251;52.112;8.606;2024-02-14T03:37:35;2.35;;;2.00;;
10410;SDS011;5251;52.112;8.606;2024-02-14T03:40:04;2.78;;;1.92;;
10410;SDS011;5251;52.112;8.606;2024-02-14T03:42:31;2.78;;;2.05;;
10410;SDS011;5251;52.112;8.606;2024-02-14T03:44:57;2.97;;;1.80;;
10410;SDS011;5251;52.112;8.606;2024-02-14T03:47:27;4.65;;;2.30;;
10410;SDS011;5251;52.112;8.606;2024-02-14T03:49:54;2.58;;;2.17;;
10410;SDS011;5251;52.112;8.606;2024-02-14T03:52:20;2.90;;;2.03;;
10410;SDS011;5251;52.112;8.606;2024-02-14T03:54:47;4.00;;;2.13;;
10410;SDS011;5251;52.112;8.606;2024-02-14T03:57:13;2.83;;;2.03;;
10410;SDS011;5251;52.112;8.606;2024-02-14T03:59:39;3.10;;;2.28;;
10410;SDS011;5251;52.112;8.606;2024-02-14T04:02:05;4.40;;;2.40;;
10410;SDS011;5251;52.112;8.606;2024-02-14T04:04:34;2.72;;;2.28;;
10410;SDS011;5251;52.112;8.606;2024-02-14T04:07:02;2.65;;;2.10;;
10410;SDS011;5251;52.112;8.606;2024-02-14T04:09:28;2.60;;;2.22;;
10410;SDS011;5251;52.112;8.606;2024-02-14T04:11:54;5.35;;;2.25;;
10410;SDS011;5251;52.112;8.606;2024-02-14T04:14:20;3.70;;;2.25;;
10410;SDS011;5251;52.112;8.606;2024-02-14T04:16:46;2.85;;;2.20;;
10410;SDS011;5251;52.112;8.606;2024-02-14T04:19:11;3.03;;;1.95;;
10410;SDS011;5251;52.112;8.606;2024-02-14T04:21:38;3.05;;;2.25;;
10410;SDS011;5251;52.112;8.606;2024-02-14T04:24:03;2.38;;;2.15;;
10410;SDS011;5251;52.112;8.606;2024-02-14T04:26:29;2.50;;;2.20;;
10410;SDS011;5251;52.112;8.606;2024-02-14T04:28:55;3.88;;;2.33;;
10410;SDS011;5251;52.112;8.606;2024-02-14T04:31:21;2.90;;;2.28;;
10410;SDS011;5251;52.112;8.606;2024-02-14T04:33:46;3.47;;;2.35;;
10410;SDS011;5251;52.112;8.606;2024-02-14T04:36:17;2.78;;;2.15;;
10410;SDS011;5251;52.112;8.606;2024-02-14T04:38:44;2.63;;;2.33;;
10410;SDS011;5251;52.112;8.606;2024-02-14T04:41:10;3.83;;;2.15;;
10410;SDS011;5251;52.112;8.606;2024-02-14T04:43:35;4.00;;;2.65;;
10410;SDS011;5251;52.112;8.606;2024-02-14T04:46:01;4.40;;;2.95;;
10410;SDS011;5251;52.112;8.606;2024-02-14T04:48:27;4.82;;;2.72;;
10410;SDS011;5251;52.112;8.606;2024-02-14T04:50:52;4.72;;;2.70;;
10410;SDS011;5251;52.112;8.606;2024-02-14T04:53:18;3.30;;;2.88;;
10410;SDS011;5251;52.112;8.606;2024-02-14T04:55:44;2.78;;;2.58;;
10410;SDS011;5251;52.112;8.606;2024-02-14T04:58:10;4.15;;;3.00;;
10410;SDS011;5251;52.112;8.606;2024-02-14T05:00:36;5.97;;;3.20;;
10410;SDS011;5251;52.112;8.606;2024-02-14T05:03:01;4.35;;;3.42;;
10410;SDS011;5251;52.112;8.606;2024-02-14T05:05:28;3.45;;;3.08;;
10410;SDS011;5251;52.112;8.606;2024-02-14T05:07:54;4.55;;;3.40;;
10410;SDS011;5251;52.112;8.606;2024-02-14T05:10:19;5.35;;;4.00;;
10410;SDS011;5251;52.112;8.606;2024-02-14T05:12:45;5.35;;;3.60;;
10410;SDS011;5251;52.112;8.606;2024-02-14T05:15:11;5.60;;;3.70;;
10410;SDS011;5251;52.112;8.606;2024-02-14T05:17:37;4.03;;;3.17;;
10410;SDS011;5251;52.112;8.606;2024-02-14T05:20:05;6.30;;;4.00;;
10410;SDS011;5251;52.112;8.606;2024-02-14T05:22:34;4.28;;;3.33;;
10410;SDS011;5251;52.112;8.606;2024-02-14T05:25:01;4.03;;;3.40;;
10410;SDS011;5251;52.112;8.606;2024-02-14T05:27:27;4.22;;;3.63;;
10410;SDS011;5251;52.112;8.606;2024-02-14T05:29:52;4.13;;;3.70;;
10410;SDS011;5251;52.112;8.606;2024-02-14T05:32:18;5.20;;;3.78;;
10410;SDS011;5251;52.112;8.606;2024-02-14T05:34:44;4.75;;;3.45;;
10410;SDS011;5251;52.112;8.606;2024-02-14T05:37:09;4.35;;;3.60;;
10410;SDS011;5251;52.112;8.606;2024-02-14T05:39:35;5.10;;;3.67;;
10410;SDS011;5251;52.112;8.606;2024-02-14T05:42:00;5.47;;;3.65;;
10410;SDS011;5251;52.112;8.606;2024-02-14T05:44:26;4.60;;;3.50;;
10410;SDS011;5251;52.112;8.606;2024-02-14T05:46:53;5.57;;;3.58;;
10410;SDS011;5251;52.112;8.606;2024-02-14T05:49:19;4.45;;;3.45;;
10410;SDS011;5251;52.112;8.606;2024-02-14T05:51:46;4.25;;;3.25;;
10410;SDS011;5251;52.112;8.606;2024-02-14T05:54:12;4.60;;;3.60;;
10410;SDS011;5251;52.112;8.606;2024-02-14T05:56:37;3.65;;;3.35;;
10410;SDS011;5251;52.112;8.606;2024-02-14T05:59:03;4.80;;;3.67;;
10410;SDS011;5251;52.112;8.606;2024-02-14T06:01:29;4.70;;;3.13;;
10410;SDS011;5251;52.112;8.606;2024-02-14T06:03:55;5.10;;;3.70;;
10410;SDS011;5251;52.112;8.606;2024-02-14T06:06:20;3.80;;;3.45;;
10410;SDS011;5251;52.112;8.606;2024-02-14T06:08:46;4.57;;;3.38;;
10410;SDS011;5251;52.112;8.606;2024-02-14T06:11:12;4.25;;;3.25;;
10410;SDS011;5251;52.112;8.606;2024-02-14T06:13:39;3.78;;;3.35;;
10410;SDS011;5251;52.112;8.606;2024-02-14T06:16:05;5.25;;;3.42;;
10410;SDS011;5251;52.112;8.606;2024-02-14T06:18:31;3.20;;;2.90;;
10410;SDS011;5251;52.112;8.606;2024-02-14T06:20:57;4.22;;;3.22;;
10410;SDS011;5251;52.112;8.606;2024-02-14T06:23:22;3.15;;;2.85;;
10410;SDS011;5251;52.112;8.606;2024-02-14T06:25:48;5.13;;;3.50;;
10410;SDS011;5251;52.112;8.606;2024-02-14T06:28:13;3.90;;;3.20;;
10410;SDS011;5251;52.112;8.606;2024-02-14T06:30:39;4.22;;;3.28;;
10410;SDS011;5251;52.112;8.606;2024-02-14T06:33:04;3.95;;;3.00;;
10410;SDS011;5251;52.112;8.606;2024-02-14T06:35:30;4.68;;;3.40;;
10410;SDS011;5251;52.112;8.606;2024-02-14T06:37:56;3.50;;;3.20;;
10410;SDS011;5251;52.112;8.606;2024-02-14T06:40:22;3.88;;;3.20;;
10410;SDS011;5251;52.112;8.606;2024-02-14T06:42:47;3.72;;;3.42;;
10410;SDS011;5251;52.112;8.606;2024-02-14T06:45:16;3.00;;;2.72;;
10410;SDS011;5251;52.112;8.606;2024-02-14T06:47:42;3.40;;;3.10;;
10410;SDS011;5251;52.112;8.606;2024-02-14T06:50:08;3.63;;;3.33;;
10410;SDS011;5251;52.112;8.606;2024-02-14T06:52:34;3.33;;;3.00;;
10410;SDS011;5251;52.112;8.606;2024-02-14T06:54:59;3.55;;;3.25;;
10410;SDS011;5251;52.112;8.606;2024-02-14T06:57:25;3.40;;;3.10;;
10410;SDS011;5251;52.112;8.606;2024-02-14T06:59:51;4.13;;;3.40;;
10410;SDS011;5251;52.112;8.606;2024-02-14T07:02:17;3.70;;;3.40;;
10410;SDS011;5251;52.112;8.606;2024-02-14T07:04:43;4.03;;;3.63;;
10410;SDS011;5251;52.112;8.606;2024-02-14T07:07:08;4.50;;;4.10;;
10410;SDS011;5251;52.112;8.606;2024-02-14T07:09:34;4.78;;;4.35;;
10410;SDS011;5251;52.112;8.606;2024-02-14T07:12:04;4.32;;;3.92;;
10410;SDS011;5251;52.112;8.606;2024-02-14T07:14:29;4.07;;;3.70;;
10410;SDS011;5251;52.112;8.606;2024-02-14T07:16:56;4.30;;;3.90;;
10410;SDS011;5251;52.112;8.606;2024-02-14T07:19:21;4.70;;;4.30;;
10410;SDS011;5251;52.112;8.606;2024-02-14T07:21:47;5.00;;;4.60;;
10410;SDS011;5251;52.112;8.606;2024-02-14T07:24:13;5.53;;;5.03;;
10410;SDS011;5251;52.112;8.606;2024-02-14T07:26:38;5.80;;;5.30;;
10410;SDS011;5251;52.112;8.606;2024-02-14T07:29:06;6.57;;;5.95;;
10410;SDS011;5251;52.112;8.606;2024-02-14T07:31:31;7.32;;;6.63;;
10410;SDS011;5251;52.112;8.606;2024-02-14T07:33:59;6.65;;;6.05;;
10410;SDS011;5251;52.112;8.606;2024-02-14T07:36:25;8.20;;;7.38;;
10410;SDS011;5251;52.112;8.606;2024-02-14T07:38:51;7.40;;;6.70;;
10410;SDS011;5251;52.112;8.606;2024-02-14T07:41:17;7.18;;;6.47;;
10410;SDS011;5251;52.112;8.606;2024-02-14T07:43:42;8.85;;;7.72;;
10410;SDS011;5251;52.112;8.606;2024-02-14T07:46:08;7.70;;;7.00;;
10410;SDS011;5251;52.112;8.606;2024-02-14T07:48:33;8.40;;;7.60;;
10410;SDS011;5251;52.112;8.606;2024-02-14T07:50:59;8.60;;;7.80;;
10410;SDS011;5251;52.112;8.606;2024-02-14T07:53:25;7.05;;;6.35;;
10410;SDS011;5251;52.112;8.606;2024-02-14T07:55:51;7.88;;;7.15;;
10410;SDS011;5251;52.112;8.606;2024-02-14T07:58:18;7.45;;;6.75;;
10410;SDS011;5251;52.112;8.606;2024-02-14T08:00:43;8.23;;;7.43;;
10410;SDS011;5251;52.112;8.606;2024-02-14T08:03:09;8.50;;;7.70;;
10410;SDS011;5251;52.112;8.606;2024-02-14T08:05:35;8.40;;;7.55;;
10410;SDS011;5251;52.112;8.606;2024-02-14T08:08:00;7.50;;;6.80;;
10410;SDS011;5251;52.112;8.606;2024-02-14T08:10:26;7.88;;;7.15;;
10410;SDS011;5251;52.112;8.606;2024-02-14T08:12:51;7.93;;;7.20;;
10410;SDS011;5251;52.112;8.606;2024-02-14T08:15:17;8.85;;;8.05;;
10410;SDS011;5251;52.112;8.606;2024-02-14T08:17:43;8.20;;;7.32;;
10410;SDS011;5251;52.112;8.606;2024-02-14T08:20:08;8.73;;;7.72;;
10410;SDS011;5251;52.112;8.606;2024-02-14T08:22:34;7.88;;;7.18;;
10410;SDS011;5251;52.112;8.606;2024-02-14T08:25:00;8.27;;;7.55;;
10410;SDS011;5251;52.112;8.606;2024-02-14T08:27:26;8.38;;;7.57;;
10410;SDS011;5251;52.112;8.606;2024-02-14T08:29:52;8.32;;;7.47;;
10410;SDS011;5251;52.112;8.606;2024-02-14T08:32:18;8.45;;;7.15;;
10410;SDS011;5251;52.112;8.606;2024-02-14T08:34:44;8.73;;;7.25;;
10410;SDS011;5251;52.112;8.606;2024-02-14T08:37:09;8.00;;;7.20;;
10410;SDS011;5251;52.112;8.606;2024-02-14T08:39:35;8.05;;;7.05;;
10410;SDS011;5251;52.112;8.606;2024-02-14T08:42:01;8.75;;;7.95;;
10410;SDS011;5251;52.112;8.606;2024-02-14T08:44:32;8.40;;;7.60;;
10410;SDS011;5251;52.112;8.606;2024-02-14T08:46:59;8.70;;;7.10;;
10410;SDS011;5251;52.112;8.606;2024-02-14T08:49:24;7.50;;;6.80;;
10410;SDS011;5251;52.112;8.606;2024-02-14T08:51:50;7.85;;;7.10;;
10410;SDS011;5251;52.112;8.606;2024-02-14T08:54:15;8.05;;;7.25;;
10410;SDS011;5251;52.112;8.606;2024-02-14T08:56:41;8.18;;;7.38;;
10410;SDS011;5251;52.112;8.606;2024-02-14T08:59:07;7.10;;;6.40;;
10410;SDS011;5251;52.112;8.606;2024-02-14T09:01:32;6.95;;;6.20;;
10410;SDS011;5251;52.112;8.606;2024-02-14T09:03:59;9.35;;;7.60;;
10410;SDS011;5251;52.112;8.606;2024-02-14T09:06:25;7.80;;;7.10;;
10410;SDS011;5251;52.112;8.606;2024-02-14T09:08:54;7.03;;;6.32;;
10410;SDS011;5251;52.112;8.606;2024-02-14T09:11:20;6.75;;;5.95;;
10410;SDS011;5251;52.112;8.606;2024-02-14T09:13:47;7.47;;;6.70;;
10410;SDS011;5251;52.112;8.606;2024-02-14T09:16:16;6.85;;;6.15;;
10410;SDS011;5251;52.112;8.606;2024-02-14T09:18:41;6.05;;;5.45;;
10410;SDS011;5251;52.112;8.606;2024-02-14T09:21:09;5.90;;;5.35;;
10410;SDS011;5251;52.112;8.606;2024-02-14T09:23:35;5.80;;;5.20;;
10410;SDS011;5251;52.112;8.606;2024-02-14T09:26:04;6.03;;;5.53;;
10410;SDS011;5251;52.112;8.606;2024-02-14T09:28:29;5.25;;;4.85;;
10410;SDS011;5251;52.112;8.606;2024-02-14T09:30:55;5.50;;;4.90;;
10410;SDS011;5251;52.112;8.606;2024-02-14T09:33:21;5.07;;;4.68;;
10410;SDS011;5251;52.112;8.606;2024-02-14T09:35:46;5.68;;;5.18;;
10410;SDS011;5251;52.112;8.606;2024-02-14T09:38:13;5.88;;;5.28;;
10410;SDS011;5251;52.112;8.606;2024-02-14T09:40:42;5.38;;;4.90;;
10410;SDS011;5251;52.112;8.606;2024-02-14T09:46:04;5.70;;;5.20;;
10410;SDS011;5251;52.112;8.606;2024-02-14T09:48:29;5.60;;;5.03;;
10410;SDS011;5251;52.112;8.606;2024-02-14T09:50:56;6.35;;;5.20;;
10410;SDS011;5251;52.112;8.606;2024-02-14T09:53:22;5.93;;;5.43;;
10410;SDS011;5251;52.112;8.606;2024-02-14T09:55:48;6.70;;;5.43;;
10410;SDS011;5251;52.112;8.606;2024-02-14T09:58:19;5.80;;;5.30;;
10410;SDS011;5251;52.112;8.606;2024-02-14T10:00:45;6.15;;;5.55;;
10410;SDS011;5251;52.112;8.606;2024-02-14T10:03:10;5.03;;;4.55;;
10410;SDS011;5251;52.112;8.606;2024-02-14T10:05:36;5.35;;;4.95;;
10410;SDS011;5251;52.112;8.606;2024-02-14T10:08:02;4.93;;;4.53;;
10410;SDS011;5251;52.112;8.606;2024-02-14T10:10:28;6.28;;;4.80;;
10410;SDS011;5251;52.112;8.606;2024-02-14T10:12:56;5.75;;;5.25;;
10410;SDS011;5251;52.112;8.606;2024-02-14T10:15:23;6.30;;;5.70;;
10410;SDS011;5251;52.112;8.606;2024-02-14T10:17:48;6.20;;;5.55;;
10410;SDS011;5251;52.112;8.606;2024-02-14T10:20:17;6.15;;;5.63;;
10410;SDS011;5251;52.112;8.606;2024-02-14T10:22:43;6.35;;;5.75;;
10410;SDS011;5251;52.112;8.606;2024-02-14T10:25:09;6.28;;;5.70;;
10410;SDS011;5251;52.112;8.606;2024-02-14T10:27:36;7.22;;;6.60;;
10410;SDS011;5251;52.112;8.606;2024-02-14T10:30:06;6.78;;;6.18;;
10410;SDS011;5251;52.112;8.606;2024-02-14T10:32:34;7.13;;;6.30;;
10410;SDS011;5251;52.112;8.606;2024-02-14T10:35:05;7.20;;;6.60;;
10410;SDS011;5251;52.112;8.606;2024-02-14T10:37:33;7.15;;;6.55;;
10410;SDS011;5251;52.112;8.606;2024-02-14T10:40:01;7.72;;;7.03;;
10410;SDS011;5251;52.112;8.606;2024-02-14T10:42:28;8.80;;;7.90;;
10410;SDS011;5251;52.112;8.606;2024-02-14T10:44:55;8.27;;;7.43;;
10410;SDS011;5251;52.112;8.606;2024-02-14T10:47:21;7.15;;;6.55;;
10410;SDS011;5251;52.112;8.606;2024-02-14T10:49:54;8.82;;;7.22;;
10410;SDS011;5251;52.112;8.606;2024-02-14T10:52:24;7.57;;;6.88;;
10410;SDS011;5251;52.112;8.606;2024-02-14T10:54:55;7.70;;;7.00;;
10410;SDS011;5251;52.112;8.606;2024-02-14T10:57:24;8.38;;;7.57;;
10410;SDS011;5251;52.112;8.606;2024-02-14T10:59:50;7.47;;;6.78;;
10410;SDS011;5251;52.112;8.606;2024-02-14T11:02:17;7.72;;;7.03;;
10410;SDS011;5251;52.112;8.606;2024-02-14T11:04:45;7.47;;;6.72;;
10410;SDS011;5251;52.112;8.606;2024-02-14T11:07:11;7.68;;;6.97;;
10410;SDS011;5251;52.112;8.606;2024-02-14T11:09:38;6.97;;;6.30;;
10410;SDS011;5251;52.112;8.606;2024-02-14T11:12:08;7.72;;;7.10;;
10410;SDS011;5251;52.112;8.606;2024-02-14T11:14:35;7.20;;;6.50;;
10410;SDS011;5251;52.112;8.606;2024-02-14T11:17:03;8.23;;;6.90;;
10410;SDS011;5251;52.112;8.606;2024-02-14T11:19:34;7.00;;;6.30;;
10410;SDS011;5251;52.112;8.606;2024-02-14T11:22:17;7.45;;;6.78;;
10410;SDS011;5251;52.112;8.606;2024-02-14T11:24:46;7.38;;;5.97;;
10410;SDS011;5251;52.112;8.606;2024-02-14T11:27:12;7.35;;;6.70;;
10410;SDS011;5251;52.112;8.606;2024-02-14T11:29:39;6.65;;;5.93;;
10410;SDS011;5251;52.112;8.606;2024-02-14T11:32:06;7.60;;;6.80;;
10410;SDS011;5251;52.112;8.606;2024-02-14T11:34:35;6.72;;;6.13;;
10410;SDS011;5251;52.112;8.606;2024-02-14T11:37:01;7.00;;;6.30;;
10410;SDS011;5251;52.112;8.606;2024-02-14T11:39:27;6.68;;;6.07;;
10410;SDS011;5251;52.112;8.606;2024-02-14T11:41:53;7.53;;;6.00;;
10410;SDS011;5251;52.112;8.606;2024-02-14T11:44:19;7.47;;;6.78;;
10410;SDS011;5251;52.112;8.606;2024-02-14T11:46:47;5.72;;;5.10;;
10410;SDS011;5251;52.112;8.606;2024-02-14T11:49:13;6.45;;;5.57;;
10410;SDS011;5251;52.112;8.606;2024-02-14T11:51:39;5.82;;;5.32;;
10410;SDS011;5251;52.112;8.606;2024-02-14T11:54:06;5.85;;;5.43;;
10410;SDS011;5251;52.112;8.606;2024-02-14T11:56:37;5.75;;;5.25;;
10410;SDS011;5251;52.112;8.606;2024-02-14T11:59:03;6.13;;;5.50;;
10410;SDS011;5251;52.112;8.606;2024-02-14T12:01:30;5.65;;;5.03;;
10410;SDS011;5251;52.112;8.606;2024-02-14T12:04:01;5.50;;;5.05;;
10410;SDS011;5251;52.112;8.606;2024-02-14T12:06:29;6.18;;;5.60;;
10410;SDS011;5251;52.112;8.606;2024-02-14T12:08:57;5.68;;;5.18;;
10410;SDS011;5251;52.112;8.606;2024-02-14T12:11:37;5.00;;;4.60;;
10410;SDS011;5251;52.112;8.606;2024-02-14T12:14:06;5.20;;;4.70;;
10410;SDS011;5251;52.112;8.606;2024-02-14T12:16:35;4.68;;;4.28;;
10410;SDS011;5251;52.112;8.606;2024-02-14T12:19:06;4.82;;;4.43;;
10410;SDS011;5251;52.112;8.606;2024-02-14T12:21:37;4.50;;;4.10;;
10410;SDS011;5251;52.112;8.606;2024-02-14T12:24:07;4.30;;;3.90;;
10410;SDS011;5251;52.112;8.606;2024-02-14T12:26:34;5.22;;;3.67;;
10410;SDS011;5251;52.112;8.606;2024-02-14T12:29:04;3.80;;;3.50;;
10410;SDS011;5251;52.112;8.606;2024-02-14T12:31:32;3.60;;;3.30;;
10410;SDS011;5251;52.112;8.606;2024-02-14T12:33:59;3.70;;;3.40;;
10410;SDS011;5251;52.112;8.606;2024-02-14T12:36:27;3.75;;;3.45;;
10410;SDS011;5251;52.112;8.606;2024-02-14T12:38:54;2.80;;;2.60;;
10410;SDS011;5251;52.112;8.606;2024-02-14T12:41:20;3.10;;;2.90;;
10410;SDS011;5251;52.112;8.606;2024-02-14T12:43:48;3.90;;;3.00;;
10410;SDS011;5251;52.112;8.606;2024-02-14T12:46:14;3.22;;;2.90;;
10410;SDS011;5251;52.112;8.606;2024-02-14T12:48:40;3.10;;;2.90;;
10410;SDS011;5251;52.112;8.606;2024-02-14T12:51:06;3.30;;;3.00;;
10410;SDS011;5251;52.112;8.606;2024-02-14T12:53:33;3.17;;;2.97;;
10410;SDS011;5251;52.112;8.606;2024-02-14T12:55:59;4.20;;;3.30;;
10410;SDS011;5251;52.112;8.606;2024-02-14T12:58:25;3.45;;;3.15;;
10410;SDS011;5251;52.112;8.606;2024-02-14T13:00:50;3.10;;;2.90;;
10410;SDS011;5251;52.112;8.606;2024-02-14T13:03:16;3.85;;;3.45;;
10410;SDS011;5251;52.112;8.606;2024-02-14T13:05:42;4.47;;;3.67;;
10410;SDS011;5251;52.112;8.606;2024-02-14T13:08:08;4.13;;;3.70;;
10410;SDS011;5251;52.112;8.606;2024-02-14T13:10:36;3.72;;;3.42;;
10410;SDS011;5251;52.112;8.606;2024-02-14T13:13:02;3.47;;;3.20;;
10410;SDS011;5251;52.112;8.606;2024-02-14T13:15:28;3.90;;;3.55;;
10410;SDS011;5251;52.112;8.606;2024-02-14T13:17:53;4.03;;;3.70;;
10410;SDS011;5251;52.112;8.606;2024-02-14T13:20:21;3.97;;;3.45;;
10410;SDS011;5251;52.112;8.606;2024-02-14T13:22:47;3.90;;;3.60;;
10410;SDS011;5251;52.112;8.606;2024-02-14T13:25:12;4.47;;;3.75;;
10410;SDS011;5251;52.112;8.606;2024-02-14T13:27:39;4.30;;;3.97;;
10410;SDS011;5251;52.112;8.606;2024-02-14T13:30:05;3.95;;;3.65;;
10410;SDS011;5251;52.112;8.606;2024-02-14T13:32:32;5.38;;;4.50;;
10410;SDS011;5251;52.112;8.606;2024-02-14T13:34:57;4.50;;;4.10;;
10410;SDS011;5251;52.112;8.606;2024-02-14T13:37:23;4.82;;;4.40;;
10410;SDS011;5251;52.112;8.606;2024-02-14T13:39:51;4.50;;;4.18;;
10410;SDS011;5251;52.112;8.606;2024-02-14T13:42:16;6.13;;;5.00;;
10410;SDS011;5251;52.112;8.606;2024-02-14T13:44:42;5.20;;;4.40;;
10410;SDS011;5251;52.112;8.606;2024-02-14T13:47:08;5.03;;;4.60;;
10410;SDS011;5251;52.112;8.606;2024-02-14T13:49:34;5.57;;;4.30;;
10410;SDS011;5251;52.112;8.606;2024-02-14T13:51:59;5.00;;;4.50;;
10410;SDS011;5251;52.112;8.606;2024-02-14T13:54:25;5.25;;;4.75;;
10410;SDS011;5251;52.112;8.606;2024-02-14T13:56:50;5.75;;;5.25;;
10410;SDS011;5251;52.112;8.606;2024-02-14T13:59:17;5.65;;;4.82;;
10410;SDS011;5251;52.112;8.606;2024-02-14T14:01:45;5.00;;;4.03;;
10410;SDS011;5251;52.112;8.606;2024-02-14T14:04:11;5.10;;;4.60;;
10410;SDS011;5251;52.112;8.606;2024-02-14T14:06:37;5.10;;;4.60;;
10410;SDS011;5251;52.112;8.606;2024-02-14T14:09:04;4.63;;;4.07;;
10410;SDS011;5251;52.112;8.606;2024-02-14T14:11:32;5.50;;;4.30;;
10410;SDS011;5251;52.112;8.606;2024-02-14T14:13:58;4.60;;;4.20;;
10410;SDS011;5251;52.112;8.606;2024-02-14T14:16:25;4.70;;;4.25;;
10410;SDS011;5251;52.112;8.606;2024-02-14T14:18:51;5.03;;;4.55;;
10410;SDS011;5251;52.112;8.606;2024-02-14T14:21:16;5.40;;;4.72;;
10410;SDS011;5251;52.112;8.606;2024-02-14T14:23:42;6.60;;;4.55;;
10410;SDS011;5251;52.112;8.606;2024-02-14T14:26:09;5.28;;;4.80;;
10410;SDS011;5251;52.112;8.606;2024-02-14T14:28:35;5.93;;;4.85;;
10410;SDS011;5251;52.112;8.606;2024-02-14T14:31:01;4.85;;;4.35;;
10410;SDS011;5251;52.112;8.606;2024-02-14T14:33:27;5.97;;;4.15;;
10410;SDS011;5251;52.112;8.606;2024-02-14T14:35:53;4.63;;;3.92;;
10410;SDS011;5251;52.112;8.606;2024-02-14T14:38:20;5.43;;;4.72;;
10410;SDS011;5251;52.112;8.606;2024-02-14T14:40:46;5.65;;;5.00;;
10410;SDS011;5251;52.112;8.606;2024-02-14T14:43:12;6.03;;;4.63;;
10410;SDS011;5251;52.112;8.606;2024-02-14T14:45:38;6.25;;;4.75;;
10410;SDS011;5251;52.112;8.606;2024-02-14T14:48:04;6.30;;;4.80;;
10410;SDS011;5251;52.112;8.606;2024-02-14T14:50:30;4.97;;;4.38;;
10410;SDS011;5251;52.112;8.606;2024-02-14T14:52:56;4.82;;;4.43;;
10410;SDS011;5251;52.112;8.606;2024-02-14T14:55:24;4.60;;;4.10;;
10410;SDS011;5251;52.112;8.606;2024-02-14T14:57:51;4.50;;;4.10;;
10410;SDS011;5251;52.112;8.606;2024-02-14T15:00:16;5.75;;;4.15;;